sensor_id;sensor_type;location;lat;lon;timestamp;temperature;humidity
4727;DHT22;2377;51.734;8.950;2023-06-05T00:02:08;14.80;1.00
4727;DHT22;2377;51.734;8.950;2023-06-05T00:04:36;14.80;1.00
4727;DHT22;2377;51.734;8.950;2023-06-05T00:07:05;14.70;1.00
4727;DHT22;2377;51.734;8.950;2023-06-05T00:09:35;14.70;1.00
4727;DHT22;2377;51.734;8.950;2023-06-05T00:12:02;14.70;1.00
4727;DHT22;2377;51.734;8.950;2023-06-05T00:14:29;14.60;1.00
4727;DHT22;2377;51.734;8.950;2023-06-05T00:16:56;14.60;1.00
4727;DHT22;2377;51.734;8.950;2023-06-05T00:19:23;14.60;1.00
4727;DHT22;2377;51.734;8.950;2023-06-05T00:21:52;14.60;1.00
4727;DHT22;2377;51.734;8.950;2023-06-05T00:24:20;14.60;1.00
4727;DHT22;2377;51.734;8.950;2023-06-05T00:26:47;14.50;1.00
4727;DHT22;2377;51.734;8.950;2023-06-05T00:29:14;14.50;1.00
4727;DHT22;2377;51.734;8.950;2023-06-05T00:31:42;14.50;1.00
4727;DHT22;2377;51.734;8.950;2023-06-05T00:34:12;14.50;1.00
4727;DHT22;2377;51.734;8.950;2023-06-05T00:36:39;14.50;1.00
4727;DHT22;2377;51.734;8.950;2023-06-05T00:39:08;14.50;1.00
4727;DHT22;2377;51.734;8.950;2023-06-05T00:41:35;14.50;1.00
4727;DHT22;2377;51.734;8.950;2023-06-05T00:44:07;14.50;1.00
4727;DHT22;2377;51.734;8.950;2023-06-05T00:46:34;14.50;1.00
4727;DHT22;2377;51.734;8.950;2023-06-05T00:49:01;14.50;1.00
4727;DHT22;2377;51.734;8.950;2023-06-05T00:51:28;14.40;1.00
4727;DHT22;2377;51.734;8.950;2023-06-05T00:53:56;14.30;1.00
4727;DHT22;2377;51.734;8.950;2023-06-05T00:56:25;14.30;1.00
4727;DHT22;2377;51.734;8.950;2023-06-05T00:58:53;14.20;1.00
4727;DHT22;2377;51.734;8.950;2023-06-05T01:01:21;14.10;1.00
4727;DHT22;2377;51.734;8.950;2023-06-05T01:03:50;14.00;1.00
4727;DHT22;2377;51.734;8.950;2023-06-05T01:06:18;14.00;1.00
4727;DHT22;2377;51.734;8.950;2023-06-05T01:08:45;14.00;1.00
4727;DHT22;2377;51.734;8.950;2023-06-05T01:11:20;14.00;1.00
4727;DHT22;2377;51.734;8.950;2023-06-05T01:13:57;14.00;1.00
4727;DHT22;2377;51.734;8.950;2023-06-05T01:16:33;13.90;1.00
4727;DHT22;2377;51.734;8.950;2023-06-05T01:19:01;13.90;1.00
4727;DHT22;2377;51.734;8.950;2023-06-05T01:21:29;13.80;1.00
4727;DHT22;2377;51.734;8.950;2023-06-05T01:23:59;13.70;1.00
4727;DHT22;2377;51.734;8.950;2023-06-05T01:26:30;13.70;1.00
4727;DHT22;2377;51.734;8.950;2023-06-05T01:29:06;13.70;1.00
4727;DHT22;2377;51.734;8.950;2023-06-05T01:31:40;13.60;1.00
4727;DHT22;2377;51.734;8.950;2023-06-05T01:34:12;13.60;1.00
4727;DHT22;2377;51.734;8.950;2023-06-05T01:36:45;13.60;1.00
4727;DHT22;2377;51.734;8.950;2023-06-05T01:39:15;13.60;1.00
4727;DHT22;2377;51.734;8.950;2023-06-05T01:41:44;13.60;1.00
4727;DHT22;2377;51.734;8.950;2023-06-05T01:44:14;13.60;1.00
4727;DHT22;2377;51.734;8.950;2023-06-05T01:46:43;13.60;1.00
4727;DHT22;2377;51.734;8.950;2023-06-05T01:49:11;13.60;1.00
4727;DHT22;2377;51.734;8.950;2023-06-05T01:51:38;13.60;1.00
4727;DHT22;2377;51.734;8.950;2023-06-05T01:54:05;13.60;1.00
4727;DHT22;2377;51.734;8.950;2023-06-05T01:56:34;13.60;1.00
4727;DHT22;2377;51.734;8.950;2023-06-05T01:59:02;13.60;1.00
4727;DHT22;2377;51.734;8.950;2023-06-05T02:01:33;13.60;1.00
4727;DHT22;2377;51.734;8.950;2023-06-05T02:04:01;13.60;1.00
4727;DHT22;2377;51.734;8.950;2023-06-05T02:06:34;13.60;1.00
4727;DHT22;2377;51.734;8.950;2023-06-05T02:09:09;13.60;1.00
4727;DHT22;2377;51.734;8.950;2023-06-05T02:11:39;13.50;1.00
4727;DHT22;2377;51.734;8.950;2023-06-05T02:14:10;13.50;1.00
4727;DHT22;2377;51.734;8.950;2023-06-05T02:16:40;13.40;1.00
4727;DHT22;2377;51.734;8.950;2023-06-05T02:19:07;13.30;1.00
4727;DHT22;2377;51.734;8.950;2023-06-05T02:21:34;13.20;1.00
4727;DHT22;2377;51.734;8.950;2023-06-05T02:24:02;13.10;1.00
4727;DHT22;2377;51.734;8.950;2023-06-05T02:26:30;13.10;1.00
4727;DHT22;2377;51.734;8.950;2023-06-05T02:28:59;13.10;1.00
4727;DHT22;2377;51.734;8.950;2023-06-05T02:31:27;13.00;1.00
4727;DHT22;2377;51.734;8.950;2023-06-05T02:33:56;13.00;1.00
4727;DHT22;2377;51.734;8.950;2023-06-05T02:36:24;12.90;1.00
4727;DHT22;2377;51.734;8.950;2023-06-05T02:38:52;12.80;1.00
4727;DHT22;2377;51.734;8.950;2023-06-05T02:41:19;12.80;1.00
4727;DHT22;2377;51.734;8.950;2023-06-05T02:43:47;12.80;1.00
4727;DHT22;2377;51.734;8.950;2023-06-05T02:46:16;12.80;1.00
4727;DHT22;2377;51.734;8.950;2023-06-05T02:48:43;12.80;1.00
4727;DHT22;2377;51.734;8.950;2023-06-05T02:51:10;12.80;1.00
4727;DHT22;2377;51.734;8.950;2023-06-05T02:53:37;12.80;1.00
4727;DHT22;2377;51.734;8.950;2023-06-05T02:56:05;12.70;1.00
4727;DHT22;2377;51.734;8.950;2023-06-05T02:58:32;12.60;1.00
4727;DHT22;2377;51.734;8.950;2023-06-05T03:01:00;12.60;1.00
4727;DHT22;2377;51.734;8.950;2023-06-05T03:03:31;12.60;1.00
4727;DHT22;2377;51.734;8.950;2023-06-05T03:05:59;12.50;1.00
4727;DHT22;2377;51.734;8.950;2023-06-05T03:08:30;12.50;1.00
4727;DHT22;2377;51.734;8.950;2023-06-05T03:10:59;12.40;1.00
4727;DHT22;2377;51.734;8.950;2023-06-05T03:13:26;12.30;1.00
4727;DHT22;2377;51.734;8.950;2023-06-05T03:15:54;12.30;1.00
4727;DHT22;2377;51.734;8.950;2023-06-05T03:18:23;12.30;1.00
4727;DHT22;2377;51.734;8.950;2023-06-05T03:20:53;12.30;1.00
4727;DHT22;2377;51.734;8.950;2023-06-05T03:23:22;12.30;1.00
4727;DHT22;2377;51.734;8.950;2023-06-05T03:25:50;12.30;1.00
4727;DHT22;2377;51.734;8.950;2023-06-05T03:28:17;12.30;1.00
4727;DHT22;2377;51.734;8.950;2023-06-05T03:30:49;12.20;1.00
4727;DHT22;2377;51.734;8.950;2023-06-05T03:33:16;12.10;1.00
4727;DHT22;2377;51.734;8.950;2023-06-05T03:35:43;12.00;1.00
4727;DHT22;2377;51.734;8.950;2023-06-05T03:38:13;12.00;1.00
4727;DHT22;2377;51.734;8.950;2023-06-05T03:40:40;12.00;1.00
4727;DHT22;2377;51.734;8.950;2023-06-05T03:43:08;12.00;1.00
4727;DHT22;2377;51.734;8.950;2023-06-05T03:45:36;12.00;1.00
4727;DHT22;2377;51.734;8.950;2023-06-05T03:48:05;12.00;1.00
4727;DHT22;2377;51.734;8.950;2023-06-05T03:50:34;12.00;1.00
4727;DHT22;2377;51.734;8.950;2023-06-05T03:53:03;12.00;7.70
4727;DHT22;2377;51.734;8.950;2023-06-05T03:55:33;12.00;1.00
4727;DHT22;2377;51.734;8.950;2023-06-05T03:58:11;12.00;1.00
4727;DHT22;2377;51.734;8.950;2023-06-05T04:00:40;12.00;1.00
4727;DHT22;2377;51.734;8.950;2023-06-05T04:03:08;12.00;1.00
4727;DHT22;2377;51.734;8.950;2023-06-05T04:05:36;12.00;1.00
4727;DHT22;2377;51.734;8.950;2023-06-05T04:08:04;12.10;6.70
4727;DHT22;2377;51.734;8.950;2023-06-05T04:10:33;12.10;1.00
4727;DHT22;2377;51.734;8.950;2023-06-05T04:13:00;12.10;1.00
4727;DHT22;2377;51.734;8.950;2023-06-05T04:15:29;12.10;1.00
4727;DHT22;2377;51.734;8.950;2023-06-05T04:17:56;12.20;1.00
4727;DHT22;2377;51.734;8.950;2023-06-05T04:20:23;12.20;1.00
4727;DHT22;2377;51.734;8.950;2023-06-05T04:22:50;12.30;1.00
4727;DHT22;2377;51.734;8.950;2023-06-05T04:25:17;12.40;1.00
4727;DHT22;2377;51.734;8.950;2023-06-05T04:27:48;12.50;2.50
4727;DHT22;2377;51.734;8.950;2023-06-05T04:30:17;12.50;1.00
4727;DHT22;2377;51.734;8.950;2023-06-05T04:32:45;12.60;1.00
4727;DHT22;2377;51.734;8.950;2023-06-05T04:35:18;12.60;1.00
4727;DHT22;2377;51.734;8.950;2023-06-05T04:37:46;12.70;1.00
4727;DHT22;2377;51.734;8.950;2023-06-05T04:40:15;12.80;1.00
4727;DHT22;2377;51.734;8.950;2023-06-05T04:42:43;12.80;1.00
4727;DHT22;2377;51.734;8.950;2023-06-05T04:45:12;12.90;1.00
4727;DHT22;2377;51.734;8.950;2023-06-05T04:47:39;13.00;1.00
4727;DHT22;2377;51.734;8.950;2023-06-05T04:50:07;13.10;1.00
4727;DHT22;2377;51.734;8.950;2023-06-05T04:52:35;13.10;1.00
4727;DHT22;2377;51.734;8.950;2023-06-05T04:55:06;13.20;1.00
4727;DHT22;2377;51.734;8.950;2023-06-05T04:57:36;13.30;1.00
4727;DHT22;2377;51.734;8.950;2023-06-05T05:00:03;13.40;1.00
4727;DHT22;2377;51.734;8.950;2023-06-05T05:02:34;13.50;1.00
4727;DHT22;2377;51.734;8.950;2023-06-05T05:05:01;13.50;1.00
4727;DHT22;2377;51.734;8.950;2023-06-05T05:07:29;13.60;1.00
4727;DHT22;2377;51.734;8.950;2023-06-05T05:09:56;13.60;1.00
4727;DHT22;2377;51.734;8.950;2023-06-05T05:12:24;13.70;1.00
4727;DHT22;2377;51.734;8.950;2023-06-05T05:14:51;13.80;1.00
4727;DHT22;2377;51.734;8.950;2023-06-05T05:17:18;13.80;1.00
4727;DHT22;2377;51.734;8.950;2023-06-05T05:19:47;13.90;1.00
4727;DHT22;2377;51.734;8.950;2023-06-05T05:22:18;14.00;1.00
4727;DHT22;2377;51.734;8.950;2023-06-05T05:24:45;14.10;1.00
4727;DHT22;2377;51.734;8.950;2023-06-05T05:27:12;14.10;1.00
4727;DHT22;2377;51.734;8.950;2023-06-05T05:29:39;14.20;1.00
4727;DHT22;2377;51.734;8.950;2023-06-05T05:32:06;14.30;1.00
4727;DHT22;2377;51.734;8.950;2023-06-05T05:34:33;14.40;1.00
4727;DHT22;2377;51.734;8.950;2023-06-05T05:37:02;14.50;1.00
4727;DHT22;2377;51.734;8.950;2023-06-05T05:39:30;14.60;1.00
4727;DHT22;2377;51.734;8.950;2023-06-05T05:41:57;14.60;1.00
4727;DHT22;2377;51.734;8.950;2023-06-05T05:44:25;14.60;1.00
4727;DHT22;2377;51.734;8.950;2023-06-05T05:46:52;14.70;1.00
4727;DHT22;2377;51.734;8.950;2023-06-05T05:49:19;14.80;1.00
4727;DHT22;2377;51.734;8.950;2023-06-05T05:51:46;14.80;1.00
4727;DHT22;2377;51.734;8.950;2023-06-05T05:54:14;14.90;1.00
4727;DHT22;2377;51.734;8.950;2023-06-05T05:56:41;15.00;1.00
4727;DHT22;2377;51.734;8.950;2023-06-05T05:59:09;15.00;1.00
4727;DHT22;2377;51.734;8.950;2023-06-05T06:01:36;15.10;1.00
4727;DHT22;2377;51.734;8.950;2023-06-05T06:04:04;15.10;1.00
4727;DHT22;2377;51.734;8.950;2023-06-05T06:06:31;15.30;1.00
4727;DHT22;2377;51.734;8.950;2023-06-05T06:08:58;15.30;1.00
4727;DHT22;2377;51.734;8.950;2023-06-05T06:11:27;15.40;1.00
4727;DHT22;2377;51.734;8.950;2023-06-05T06:13:54;15.50;1.00
4727;DHT22;2377;51.734;8.950;2023-06-05T06:16:22;15.50;1.00
4727;DHT22;2377;51.734;8.950;2023-06-05T06:18:49;15.60;1.00
4727;DHT22;2377;51.734;8.950;2023-06-05T06:21:16;15.70;1.00
4727;DHT22;2377;51.734;8.950;2023-06-05T06:23:43;15.80;1.00
4727;DHT22;2377;51.734;8.950;2023-06-05T06:26:10;15.80;1.00
4727;DHT22;2377;51.734;8.950;2023-06-05T06:28:41;16.00;1.00
4727;DHT22;2377;51.734;8.950;2023-06-05T06:31:08;16.00;1.00
4727;DHT22;2377;51.734;8.950;2023-06-05T06:33:35;16.10;1.00
4727;DHT22;2377;51.734;8.950;2023-06-05T06:36:03;16.20;1.00
4727;DHT22;2377;51.734;8.950;2023-06-05T06:38:30;16.40;1.00
4727;DHT22;2377;51.734;8.950;2023-06-05T06:40:57;16.50;1.00
4727;DHT22;2377;51.734;8.950;2023-06-05T06:43:25;16.70;1.00
4727;DHT22;2377;51.734;8.950;2023-06-05T06:45:53;16.90;1.00
4727;DHT22;2377;51.734;8.950;2023-06-05T06:48:20;17.10;1.00
4727;DHT22;2377;51.734;8.950;2023-06-05T06:50:48;17.30;1.00
4727;DHT22;2377;51.734;8.950;2023-06-05T06:53:15;17.50;1.00
4727;DHT22;2377;51.734;8.950;2023-06-05T06:55:42;17.70;1.00
4727;DHT22;2377;51.734;8.950;2023-06-05T06:58:09;17.90;1.00
4727;DHT22;2377;51.734;8.950;2023-06-05T07:00:36;18.10;1.00
4727;DHT22;2377;51.734;8.950;2023-06-05T07:03:05;18.40;1.00
4727;DHT22;2377;51.734;8.950;2023-06-05T07:05:32;18.70;1.00
4727;DHT22;2377;51.734;8.950;2023-06-05T07:07:59;19.00;1.00
4727;DHT22;2377;51.734;8.950;2023-06-05T07:10:27;19.20;1.00
4727;DHT22;2377;51.734;8.950;2023-06-05T07:12:54;19.50;1.00
4727;DHT22;2377;51.734;8.950;2023-06-05T07:15:21;19.70;1.00
4727;DHT22;2377;51.734;8.950;2023-06-05T07:17:49;20.00;1.00
4727;DHT22;2377;51.734;8.950;2023-06-05T07:20:18;20.20;1.00
4727;DHT22;2377;51.734;8.950;2023-06-05T07:22:45;20.40;1.00
4727;DHT22;2377;51.734;8.950;2023-06-05T07:25:12;20.60;1.00
4727;DHT22;2377;51.734;8.950;2023-06-05T07:27:42;20.80;1.00
4727;DHT22;2377;51.734;8.950;2023-06-05T07:30:10;21.00;1.00
4727;DHT22;2377;51.734;8.950;2023-06-05T07:32:38;21.10;1.00
4727;DHT22;2377;51.734;8.950;2023-06-05T07:35:07;21.30;1.00
4727;DHT22;2377;51.734;8.950;2023-06-05T07:37:36;21.50;1.00
4727;DHT22;2377;51.734;8.950;2023-06-05T07:40:04;21.60;1.00
4727;DHT22;2377;51.734;8.950;2023-06-05T07:42:32;21.80;1.00
4727;DHT22;2377;51.734;8.950;2023-06-05T07:45:00;22.10;1.00
4727;DHT22;2377;51.734;8.950;2023-06-05T07:47:27;22.30;1.00
4727;DHT22;2377;51.734;8.950;2023-06-05T07:49:58;22.30;1.00
4727;DHT22;2377;51.734;8.950;2023-06-05T07:52:29;22.50;99.90
4727;DHT22;2377;51.734;8.950;2023-06-05T07:54:58;22.60;99.90
4727;DHT22;2377;51.734;8.950;2023-06-05T07:57:26;22.80;99.90
4727;DHT22;2377;51.734;8.950;2023-06-05T07:59:54;22.90;99.90
4727;DHT22;2377;51.734;8.950;2023-06-05T08:02:21;23.00;99.90
4727;DHT22;2377;51.734;8.950;2023-06-05T08:04:49;23.10;99.90
4727;DHT22;2377;51.734;8.950;2023-06-05T08:07:16;23.30;99.90
4727;DHT22;2377;51.734;8.950;2023-06-05T08:09:43;23.30;99.90
4727;DHT22;2377;51.734;8.950;2023-06-05T08:12:11;23.40;99.90
4727;DHT22;2377;51.734;8.950;2023-06-05T08:14:38;23.50;99.90
4727;DHT22;2377;51.734;8.950;2023-06-05T08:17:05;23.60;99.90
4727;DHT22;2377;51.734;8.950;2023-06-05T08:19:32;23.70;99.90
4727;DHT22;2377;51.734;8.950;2023-06-05T08:22:00;23.90;99.90
4727;DHT22;2377;51.734;8.950;2023-06-05T08:24:28;24.00;99.90
4727;DHT22;2377;51.734;8.950;2023-06-05T08:26:56;24.00;99.90
4727;DHT22;2377;51.734;8.950;2023-06-05T08:29:27;24.10;99.90
4727;DHT22;2377;51.734;8.950;2023-06-05T08:31:54;24.30;99.90
4727;DHT22;2377;51.734;8.950;2023-06-05T08:34:21;24.30;99.90
4727;DHT22;2377;51.734;8.950;2023-06-05T08:36:51;24.30;99.90
4727;DHT22;2377;51.734;8.950;2023-06-05T08:39:18;24.50;99.90
4727;DHT22;2377;51.734;8.950;2023-06-05T08:41:49;24.60;99.90
4727;DHT22;2377;51.734;8.950;2023-06-05T08:44:20;24.70;99.90
4727;DHT22;2377;51.734;8.950;2023-06-05T08:46:49;24.80;99.90
4727;DHT22;2377;51.734;8.950;2023-06-05T08:49:18;24.90;99.90
4727;DHT22;2377;51.734;8.950;2023-06-05T08:51:50;25.00;99.90
4727;DHT22;2377;51.734;8.950;2023-06-05T08:54:19;25.00;99.90
4727;DHT22;2377;51.734;8.950;2023-06-05T08:56:47;25.10;99.90
4727;DHT22;2377;51.734;8.950;2023-06-05T08:59:15;25.20;99.90
4727;DHT22;2377;51.734;8.950;2023-06-05T09:01:46;25.10;99.90
4727;DHT22;2377;51.734;8.950;2023-06-05T09:04:15;25.20;99.90
4727;DHT22;2377;51.734;8.950;2023-06-05T09:06:45;25.30;99.90
4727;DHT22;2377;51.734;8.950;2023-06-05T09:09:14;25.40;99.90
4727;DHT22;2377;51.734;8.950;2023-06-05T09:11:41;25.50;99.90
4727;DHT22;2377;51.734;8.950;2023-06-05T09:14:09;25.50;99.90
4727;DHT22;2377;51.734;8.950;2023-06-05T09:16:37;25.30;99.90
4727;DHT22;2377;51.734;8.950;2023-06-05T09:19:08;25.00;99.90
4727;DHT22;2377;51.734;8.950;2023-06-05T09:21:38;25.10;99.90
4727;DHT22;2377;51.734;8.950;2023-06-05T09:24:13;25.30;99.90
4727;DHT22;2377;51.734;8.950;2023-06-05T09:26:54;25.50;99.90
4727;DHT22;2377;51.734;8.950;2023-06-05T09:29:23;25.50;99.90
4727;DHT22;2377;51.734;8.950;2023-06-05T09:31:54;25.70;99.90
4727;DHT22;2377;51.734;8.950;2023-06-05T09:34:24;25.60;99.90
4727;DHT22;2377;51.734;8.950;2023-06-05T09:36:55;25.40;99.90
4727;DHT22;2377;51.734;8.950;2023-06-05T09:39:24;25.30;99.90
4727;DHT22;2377;51.734;8.950;2023-06-05T09:41:52;25.20;99.90
4727;DHT22;2377;51.734;8.950;2023-06-05T09:44:22;25.20;99.90
4727;DHT22;2377;51.734;8.950;2023-06-05T09:46:54;25.40;99.90
4727;DHT22;2377;51.734;8.950;2023-06-05T09:49:25;25.60;99.90
4727;DHT22;2377;51.734;8.950;2023-06-05T09:51:56;25.70;99.90
4727;DHT22;2377;51.734;8.950;2023-06-05T09:54:26;25.80;99.90
4727;DHT22;2377;51.734;8.950;2023-06-05T09:56:57;25.90;99.90
4727;DHT22;2377;51.734;8.950;2023-06-05T09:59:28;25.80;99.90
4727;DHT22;2377;51.734;8.950;2023-06-05T10:01:58;25.80;99.90
4727;DHT22;2377;51.734;8.950;2023-06-05T10:04:28;25.90;99.90
4727;DHT22;2377;51.734;8.950;2023-06-05T10:07:00;25.90;99.90
4727;DHT22;2377;51.734;8.950;2023-06-05T10:09:30;26.00;99.90
4727;DHT22;2377;51.734;8.950;2023-06-05T10:11:58;26.10;99.90
4727;DHT22;2377;51.734;8.950;2023-06-05T10:14:26;26.10;99.90
4727;DHT22;2377;51.734;8.950;2023-06-05T10:16:54;26.10;99.90
4727;DHT22;2377;51.734;8.950;2023-06-05T10:19:23;26.10;99.90
4727;DHT22;2377;51.734;8.950;2023-06-05T10:21:51;26.20;99.90
4727;DHT22;2377;51.734;8.950;2023-06-05T10:24:22;26.20;99.90
4727;DHT22;2377;51.734;8.950;2023-06-05T10:27:10;26.30;99.90
4727;DHT22;2377;51.734;8.950;2023-06-05T10:33:17;26.40;99.90
4727;DHT22;2377;51.734;8.950;2023-06-05T10:35:58;26.50;99.90
4727;DHT22;2377;51.734;8.950;2023-06-05T10:38:35;26.50;99.90
4727;DHT22;2377;51.734;8.950;2023-06-05T10:41:06;26.50;99.90
4727;DHT22;2377;51.734;8.950;2023-06-05T10:43:35;26.30;99.90
4727;DHT22;2377;51.734;8.950;2023-06-05T10:46:30;26.30;99.90
4727;DHT22;2377;51.734;8.950;2023-06-05T10:49:09;26.20;99.90
4727;DHT22;2377;51.734;8.950;2023-06-05T10:51:39;26.10;99.90
4727;DHT22;2377;51.734;8.950;2023-06-05T10:54:09;26.00;99.90
4727;DHT22;2377;51.734;8.950;2023-06-05T10:56:55;26.00;99.90
4727;DHT22;2377;51.734;8.950;2023-06-05T10:59:26;26.00;99.90
4727;DHT22;2377;51.734;8.950;2023-06-05T11:02:25;25.80;99.90
4727;DHT22;2377;51.734;8.950;2023-06-05T11:05:18;25.80;99.90
4727;DHT22;2377;51.734;8.950;2023-06-05T11:07:46;25.40;99.90
4727;DHT22;2377;51.734;8.950;2023-06-05T11:10:15;25.10;99.90
4727;DHT22;2377;51.734;8.950;2023-06-05T11:13:00;25.00;99.90
4727;DHT22;2377;51.734;8.950;2023-06-05T11:15:42;24.90;99.90
4727;DHT22;2377;51.734;8.950;2023-06-05T11:18:32;24.60;99.90
4727;DHT22;2377;51.734;8.950;2023-06-05T11:21:01;24.70;99.90
4727;DHT22;2377;51.734;8.950;2023-06-05T11:23:29;24.60;99.90
4727;DHT22;2377;51.734;8.950;2023-06-05T11:25:57;24.60;99.90
4727;DHT22;2377;51.734;8.950;2023-06-05T11:28:47;24.60;99.90
4727;DHT22;2377;51.734;8.950;2023-06-05T11:31:27;24.60;99.90
4727;DHT22;2377;51.734;8.950;2023-06-05T11:33:56;24.60;99.90
4727;DHT22;2377;51.734;8.950;2023-06-05T11:36:23;24.80;99.90
4727;DHT22;2377;51.734;8.950;2023-06-05T11:38:55;24.80;99.90
4727;DHT22;2377;51.734;8.950;2023-06-05T11:41:22;24.60;99.90
4727;DHT22;2377;51.734;8.950;2023-06-05T11:43:53;24.50;99.90
4727;DHT22;2377;51.734;8.950;2023-06-05T11:46:20;24.30;99.90
4727;DHT22;2377;51.734;8.950;2023-06-05T11:49:02;24.40;99.90
4727;DHT22;2377;51.734;8.950;2023-06-05T11:51:32;24.60;99.90
4727;DHT22;2377;51.734;8.950;2023-06-05T11:54:01;24.70;99.90
4727;DHT22;2377;51.734;8.950;2023-06-05T11:56:28;24.80;99.90
4727;DHT22;2377;51.734;8.950;2023-06-05T11:58:57;25.00;99.90
4727;DHT22;2377;51.734;8.950;2023-06-05T12:01:24;25.10;99.90
4727;DHT22;2377;51.734;8.950;2023-06-05T12:04:04;25.30;99.90
4727;DHT22;2377;51.734;8.950;2023-06-05T12:06:32;25.40;99.90
4727;DHT22;2377;51.734;8.950;2023-06-05T12:09:09;25.60;99.90
4727;DHT22;2377;51.734;8.950;2023-06-05T12:11:38;25.50;99.90
4727;DHT22;2377;51.734;8.950;2023-06-05T12:14:06;25.60;99.90
4727;DHT22;2377;51.734;8.950;2023-06-05T12:16:34;25.40;99.90
4727;DHT22;2377;51.734;8.950;2023-06-05T12:19:10;25.00;99.90
4727;DHT22;2377;51.734;8.950;2023-06-05T12:21:40;25.00;99.90
4727;DHT22;2377;51.734;8.950;2023-06-05T12:24:07;25.10;99.90
4727;DHT22;2377;51.734;8.950;2023-06-05T12:26:54;25.00;99.90
4727;DHT22;2377;51.734;8.950;2023-06-05T12:29:26;24.80;99.90
4727;DHT22;2377;51.734;8.950;2023-06-05T12:31:55;24.70;99.90
4727;DHT22;2377;51.734;8.950;2023-06-05T12:34:39;24.80;99.90
4727;DHT22;2377;51.734;8.950;2023-06-05T12:37:20;25.00;99.90
4727;DHT22;2377;51.734;8.950;2023-06-05T12:39:48;25.00;99.90
4727;DHT22;2377;51.734;8.950;2023-06-05T12:42:15;25.00;99.90
4727;DHT22;2377;51.734;8.950;2023-06-05T12:44:43;25.00;99.90
4727;DHT22;2377;51.734;8.950;2023-06-05T12:47:12;24.90;99.90
4727;DHT22;2377;51.734;8.950;2023-06-05T12:49:39;25.00;99.90
4727;DHT22;2377;51.734;8.950;2023-06-05T12:52:07;25.10;99.90
4727;DHT22;2377;51.734;8.950;2023-06-05T12:54:35;25.20;99.90
4727;DHT22;2377;51.734;8.950;2023-06-05T12:57:04;25.30;99.90
4727;DHT22;2377;51.734;8.950;2023-06-05T12:59:33;25.50;99.90
4727;DHT22;2377;51.734;8.950;2023-06-05T13:02:02;25.60;99.90
4727;DHT22;2377;51.734;8.950;2023-06-05T13:04:30;25.70;99.90
4727;DHT22;2377;51.734;8.950;2023-06-05T13:06:58;25.60;99.90
4727;DHT22;2377;51.734;8.950;2023-06-05T13:09:26;25.50;99.90
4727;DHT22;2377;51.734;8.950;2023-06-05T13:11:53;25.40;99.90
4727;DHT22;2377;51.734;8.950;2023-06-05T13:14:22;25.50;99.90
4727;DHT22;2377;51.734;8.950;2023-06-05T13:16:49;25.50;99.90
4727;DHT22;2377;51.734;8.950;2023-06-05T13:19:18;25.60;99.90
4727;DHT22;2377;51.734;8.950;2023-06-05T13:21:46;25.60;99.90
4727;DHT22;2377;51.734;8.950;2023-06-05T13:24:13;25.70;99.90
4727;DHT22;2377;51.734;8.950;2023-06-05T13:26:40;25.70;99.90
4727;DHT22;2377;51.734;8.950;2023-06-05T13:29:08;25.80;99.90
4727;DHT22;2377;51.734;8.950;2023-06-05T13:31:35;25.80;99.90
4727;DHT22;2377;51.734;8.950;2023-06-05T13:34:02;25.80;99.90
4727;DHT22;2377;51.734;8.950;2023-06-05T13:36:31;25.80;99.90
4727;DHT22;2377;51.734;8.950;2023-06-05T13:38:59;25.90;99.90
4727;DHT22;2377;51.734;8.950;2023-06-05T13:41:26;25.80;99.90
4727;DHT22;2377;51.734;8.950;2023-06-05T13:43:53;25.80;99.90
4727;DHT22;2377;51.734;8.950;2023-06-05T13:46:21;25.60;99.90
4727;DHT22;2377;51.734;8.950;2023-06-05T13:48:49;25.60;99.90
4727;DHT22;2377;51.734;8.950;2023-06-05T13:51:16;25.60;99.90
4727;DHT22;2377;51.734;8.950;2023-06-05T13:53:45;25.60;99.90
4727;DHT22;2377;51.734;8.950;2023-06-05T13:56:12;25.60;99.90
4727;DHT22;2377;51.734;8.950;2023-06-05T13:58:42;25.30;99.90
4727;DHT22;2377;51.734;8.950;2023-06-05T14:01:10;25.20;99.90
4727;DHT22;2377;51.734;8.950;2023-06-05T14:03:37;25.30;99.90
4727;DHT22;2377;51.734;8.950;2023-06-05T14:06:05;25.30;99.90
4727;DHT22;2377;51.734;8.950;2023-06-05T14:08:32;25.30;99.90
4727;DHT22;2377;51.734;8.950;2023-06-05T14:11:01;25.40;99.90
4727;DHT22;2377;51.734;8.950;2023-06-05T14:13:29;25.40;99.90
4727;DHT22;2377;51.734;8.950;2023-06-05T14:15:56;25.40;99.90
4727;DHT22;2377;51.734;8.950;2023-06-05T14:18:25;25.50;99.90
4727;DHT22;2377;51.734;8.950;2023-06-05T14:20:52;25.60;99.90
4727;DHT22;2377;51.734;8.950;2023-06-05T14:23:19;25.60;99.90
4727;DHT22;2377;51.734;8.950;2023-06-05T14:25:48;25.60;99.90
4727;DHT22;2377;51.734;8.950;2023-06-05T14:28:17;25.60;99.90
4727;DHT22;2377;51.734;8.950;2023-06-05T14:30:45;25.60;99.90
4727;DHT22;2377;51.734;8.950;2023-06-05T14:33:12;25.60;99.90
4727;DHT22;2377;51.734;8.950;2023-06-05T14:35:39;25.70;99.90
4727;DHT22;2377;51.734;8.950;2023-06-05T14:38:06;25.60;99.90
4727;DHT22;2377;51.734;8.950;2023-06-05T14:40:37;25.60;99.90
4727;DHT22;2377;51.734;8.950;2023-06-05T14:43:04;25.60;99.90
4727;DHT22;2377;51.734;8.950;2023-06-05T14:45:33;25.60;99.90
4727;DHT22;2377;51.734;8.950;2023-06-05T14:48:00;25.80;99.90
4727;DHT22;2377;51.734;8.950;2023-06-05T14:50:27;25.60;99.90
4727;DHT22;2377;51.734;8.950;2023-06-05T14:52:54;25.60;99.90
4727;DHT22;2377;51.734;8.950;2023-06-05T14:55:21;25.60;99.90
4727;DHT22;2377;51.734;8.950;2023-06-05T14:57:48;25.50;99.90
4727;DHT22;2377;51.734;8.950;2023-06-05T15:00:16;25.50;99.90
4727;DHT22;2377;51.734;8.950;2023-06-05T15:02:45;25.40;99.90
4727;DHT22;2377;51.734;8.950;2023-06-05T15:05:12;25.40;99.90
4727;DHT22;2377;51.734;8.950;2023-06-05T15:07:41;25.50;99.90
4727;DHT22;2377;51.734;8.950;2023-06-05T15:10:09;25.30;99.90
4727;DHT22;2377;51.734;8.950;2023-06-05T15:12:38;25.30;99.90
4727;DHT22;2377;51.734;8.950;2023-06-05T15:15:07;25.10;99.90
4727;DHT22;2377;51.734;8.950;2023-06-05T15:17:35;25.10;99.90
4727;DHT22;2377;51.734;8.950;2023-06-05T15:20:04;25.10;99.90
4727;DHT22;2377;51.734;8.950;2023-06-05T15:22:32;25.10;99.90
4727;DHT22;2377;51.734;8.950;2023-06-05T15:24:59;25.10;99.90
4727;DHT22;2377;51.734;8.950;2023-06-05T15:27:26;25.10;99.90
4727;DHT22;2377;51.734;8.950;2023-06-05T15:29:53;25.00;99.90
4727;DHT22;2377;51.734;8.950;2023-06-05T15:32:20;24.90;99.90
4727;DHT22;2377;51.734;8.950;2023-06-05T15:34:47;24.80;99.90
4727;DHT22;2377;51.734;8.950;2023-06-05T15:37:15;24.80;99.90
4727;DHT22;2377;51.734;8.950;2023-06-05T15:39:42;24.80;99.90
4727;DHT22;2377;51.734;8.950;2023-06-05T15:42:10;24.70;99.90
4727;DHT22;2377;51.734;8.950;2023-06-05T15:44:38;24.80;99.90
4727;DHT22;2377;51.734;8.950;2023-06-05T15:47:06;24.70;99.90
4727;DHT22;2377;51.734;8.950;2023-06-05T15:49:33;24.70;99.90
4727;DHT22;2377;51.734;8.950;2023-06-05T15:52:03;24.70;99.90
4727;DHT22;2377;51.734;8.950;2023-06-05T15:54:32;24.70;99.90
4727;DHT22;2377;51.734;8.950;2023-06-05T15:57:02;24.80;99.90
4727;DHT22;2377;51.734;8.950;2023-06-05T15:59:30;24.80;99.90
4727;DHT22;2377;51.734;8.950;2023-06-05T16:01:57;24.80;99.90
4727;DHT22;2377;51.734;8.950;2023-06-05T16:04:24;24.80;99.90
4727;DHT22;2377;51.734;8.950;2023-06-05T16:06:51;24.70;99.90
4727;DHT22;2377;51.734;8.950;2023-06-05T16:09:19;24.70;99.90
4727;DHT22;2377;51.734;8.950;2023-06-05T16:11:47;24.80;99.90
4727;DHT22;2377;51.734;8.950;2023-06-05T16:14:14;24.60;99.90
4727;DHT22;2377;51.734;8.950;2023-06-05T16:16:41;24.60;99.90
4727;DHT22;2377;51.734;8.950;2023-06-05T16:19:08;24.60;99.90
4727;DHT22;2377;51.734;8.950;2023-06-05T16:21:38;24.60;99.90
4727;DHT22;2377;51.734;8.950;2023-06-05T16:24:07;24.60;99.90
4727;DHT22;2377;51.734;8.950;2023-06-05T16:26:34;24.60;99.90